Hastings, Canada
Current Conditions -  °F | °C
As of 2:00 PM on Tuesday 21 Oct 2014 (Local Time) from CYPQ Reporting Station
Light Rain Light Rain  
Wind Chill: 37°   Ceiling: 1300
Heat Index: 45°   Visibility: 9mi
Dew Point: 43°   Wind: 17mph
Humidity: 93%   Direction: 40°NE
Pressure: 29.94"   Gusts: 23mph
Location:  44.3°N, 77.95°W
Report Text: CYPQ 211800Z AUTO 04015G20KT 9SM -RA OVC013 07/06 A2994 RMK PCPN 1.0MM PAST HR SLP142
Loading
Personal Weather Stations






























Interactive Weather Map
Tropical Storm Tracking
New forecast layout! Learn more

10-Day Weather Forecast

Advertisements
Track Severe Weather on mobile